Time;durP1;ratioP1;P1;durP2;ratioP2;P2;SDS_P1;SDS_P2;PMS_P1;PMS_P2;Temp;Humidity;BMP_temperature;BMP_pressure;BME280_temperature;BME280_humidity;BME280_pressure;Samples;Min_cycle;Max_cycle;Signal;HPM_P1;HPM_P2
2022/02/01 00:01:28;;;;;;;11.37;3.13;;;1.40;99.90;;;;;;4926726;28;20049;-80
2022/02/01 00:04:17;;;;;;;11.07;3.00;;;1.40;99.90;;;;;;4956986;29;20094;-81
2022/02/01 00:06:54;;;;;;;7.90;2.67;;;1.40;99.90;;;;;;4956778;28;20059;-82
2022/02/01 00:09:27;;;;;;;19.10;11.43;;;1.50;99.90;;;;;;4953397;28;20087;-78
2022/02/01 00:12:06;;;;;;;43.13;27.30;;;1.50;99.90;;;;;;4956402;29;20149;-80
2022/02/01 00:14:43;;;;;;;8.77;3.93;;;1.60;99.90;;;;;;4957062;28;20094;-80
2022/02/01 00:20:17;;;;;;;5.33;2.40;;;1.70;99.90;;;;;;4932913;29;20075;-80
2022/02/01 00:34:18;;;;;;;11.20;4.73;;;1.70;99.90;;;;;;4898206;29;20083;-80
2022/02/01 00:36:53;;;;;;;14.97;3.17;;;1.60;99.90;;;;;;4900233;29;20120;-80
2022/02/01 00:39:30;;;;;;;5.90;2.40;;;1.70;99.90;;;;;;4899308;29;20057;-79
2022/02/01 00:42:00;;;;;;;7.73;3.03;;;1.80;99.90;;;;;;4901059;29;20515;-79
2022/02/01 00:44:26;;;;;;;10.37;2.33;;;1.80;99.90;;;;;;4900626;29;20071;-82
2022/02/01 00:46:52;;;;;;;19.87;3.60;;;1.80;99.90;;;;;;4899276;29;20056;-81
2022/02/01 00:49:19;;;;;;;12.90;3.30;;;1.80;99.90;;;;;;4899648;29;20060;-79
2022/02/01 00:51:48;;;;;;;6.40;2.87;;;1.90;99.90;;;;;;4900917;29;20089;-81
2022/02/01 00:54:15;;;;;;;10.70;3.13;;;1.90;99.90;;;;;;4899944;29;20073;-80
2022/02/01 00:56:42;;;;;;;9.93;3.63;;;1.90;99.90;;;;;;4898303;29;20169;-80
2022/02/01 00:59:12;;;;;;;6.17;3.60;;;1.90;99.90;;;;;;4923044;29;20081;-80
2022/02/01 01:02:12;;;;;;;4.23;3.07;;;1.90;99.90;;;;;;4958301;29;20059;-80
2022/02/01 01:04:39;;;;;;;8.77;3.27;;;1.80;99.90;;;;;;4934986;29;20071;-79
2022/02/01 01:07:08;;;;;;;5.00;3.90;;;1.80;99.90;;;;;;4946271;28;20098;-80
2022/02/01 01:09:36;;;;;;;8.23;3.43;;;1.90;99.90;;;;;;4956803;29;20059;-79
2022/02/01 01:12:05;;;;;;;11.67;3.67;;;1.90;99.90;;;;;;4957192;28;20051;-80
2022/02/01 01:14:53;;;;;;;13.53;5.20;;;1.90;99.90;;;;;;4955171;29;20055;-80
2022/02/01 01:45:01;;;;;;;13.23;3.93;;;1.80;99.90;;;;;;4955142;28;20058;-79
2022/02/01 01:53:12;;;;;;;9.27;3.67;;;1.90;99.90;;;;;;4952083;28;20102;-79
2022/02/01 01:55:44;;;;;;;7.40;4.57;;;1.90;99.90;;;;;;4954292;28;20055;-78
2022/02/01 01:58:12;;;;;;;8.23;4.70;;;1.90;99.90;;;;;;4954795;29;20062;-78
2022/02/01 02:03:28;;;;;;;8.77;3.93;;;2.00;99.90;;;;;;4953275;28;20157;-77
2022/02/01 02:05:58;;;;;;;13.73;4.27;;;2.00;99.90;;;;;;4954828;28;20051;-79
2022/02/01 02:08:24;;;;;;;16.57;4.87;;;2.00;99.90;;;;;;4954575;28;20102;-79
2022/02/01 02:10:57;;;;;;;12.67;4.60;;;2.00;99.90;;;;;;4954679;29;20086;-80
2022/02/01 02:16:11;;;;;;;12.47;5.03;;;2.00;99.90;;;;;;4955432;29;20398;-77
2022/02/01 02:18:40;;;;;;;11.10;4.10;;;2.00;99.90;;;;;;4954171;29;20094;-78
2022/02/01 02:21:09;;;;;;;12.57;4.67;;;2.00;99.90;;;;;;4953164;28;20059;-80
2022/02/01 02:23:35;;;;;;;7.07;4.17;;;2.00;99.90;;;;;;4954408;29;20059;-79
2022/02/01 02:26:07;;;;;;;22.07;4.87;;;2.00;99.90;;;;;;4955918;29;20067;-80
2022/02/01 02:28:33;;;;;;;7.80;3.30;;;2.00;99.90;;;;;;4957092;28;20059;-80
2022/02/01 02:31:01;;;;;;;8.23;4.40;;;2.00;99.90;;;;;;4956804;28;20067;-80
2022/02/01 02:33:28;;;;;;;5.53;3.60;;;2.00;99.90;;;;;;4956922;28;20059;-79
2022/02/01 02:35:58;;;;;;;11.73;5.63;;;2.00;99.90;;;;;;4952994;29;20062;-79
2022/02/01 02:38:37;;;;;;;6.60;4.07;;;2.00;99.90;;;;;;4954143;28;20047;-80
2022/02/01 02:41:22;;;;;;;13.83;4.77;;;2.10;99.90;;;;;;4936157;29;20086;-79
2022/02/01 02:46:34;;;;;;;36.53;19.33;;;2.00;99.90;;;;;;4954574;28;20134;-80
2022/02/01 02:49:03;;;;;;;13.07;5.40;;;2.10;99.90;;;;;;4956670;29;20059;-81
2022/02/01 02:51:29;;;;;;;8.00;4.73;;;2.10;99.90;;;;;;4956029;28;20110;-81
2022/02/01 02:53:56;;;;;;;11.07;5.83;;;2.10;99.90;;;;;;4942433;28;20401;-81
2022/02/01 02:56:23;;;;;;;11.70;5.27;;;2.10;99.90;;;;;;4942469;28;20051;-82
2022/02/01 02:58:51;;;;;;;10.63;4.37;;;2.10;99.90;;;;;;4951726;28;20082;-81
2022/02/01 03:01:18;;;;;;;11.23;4.67;;;2.10;99.90;;;;;;4954512;28;20146;-80
2022/02/01 03:03:44;;;;;;;11.10;4.47;;;2.10;99.90;;;;;;4954465;29;20067;-79
2022/02/01 03:06:10;;;;;;;4.43;3.77;;;2.20;99.90;;;;;;4955088;29;20409;-81
2022/02/01 03:08:36;;;;;;;7.30;5.20;;;2.20;99.90;;;;;;4937764;29;20110;-78
2022/02/01 03:11:11;;;;;;;12.37;4.53;;;2.20;99.90;;;;;;4954786;28;20063;-80
2022/02/01 03:13:41;;;;;;;9.27;4.93;;;2.10;99.90;;;;;;4952685;28;20161;-80
2022/02/01 03:16:12;;;;;;;10.10;4.70;;;2.20;99.90;;;;;;4955288;29;20067;-79
2022/02/01 03:21:28;;;;;;;7.97;5.73;;;2.30;99.90;;;;;;4956882;29;20285;-80
2022/02/01 03:23:58;;;;;;;14.07;5.03;;;2.20;99.90;;;;;;4956397;28;20430;-80
2022/02/01 03:26:25;;;;;;;14.07;7.07;;;2.30;99.90;;;;;;4956278;28;20070;-80
2022/02/01 03:28:51;;;;;;;16.07;5.40;;;2.30;99.90;;;;;;4956088;28;20059;-80
2022/02/01 03:31:17;;;;;;;7.83;3.90;;;2.20;99.90;;;;;;4957385;28;20406;-80
2022/02/01 03:33:44;;;;;;;21.37;6.47;;;2.30;99.90;;;;;;4957238;29;20094;-80
2022/02/01 03:36:10;;;;;;;6.70;4.53;;;2.30;99.90;;;;;;4957074;28;20063;-79
2022/02/01 03:38:37;;;;;;;11.63;5.17;;;2.30;99.90;;;;;;4955980;29;20055;-80
2022/02/01 03:41:06;;;;;;;8.80;5.30;;;2.40;99.90;;;;;;4956288;28;20066;-79
2022/02/01 03:43:33;;;;;;;12.00;5.83;;;2.40;99.90;;;;;;4954163;29;20426;-80
2022/02/01 03:45:59;;;;;;;11.00;5.17;;;2.30;99.90;;;;;;4955182;29;20063;-79
2022/02/01 03:48:25;;;;;;;13.30;5.23;;;2.30;99.90;;;;;;4952700;29;20430;-79
2022/02/01 03:50:51;;;;;;;17.93;7.03;;;2.30;99.90;;;;;;4954072;29;20059;-78
2022/02/01 03:53:18;;;;;;;15.43;6.33;;;2.30;99.90;;;;;;4954325;29;20047;-79
2022/02/01 03:55:44;;;;;;;13.50;7.07;;;2.40;99.90;;;;;;4954547;29;20059;-79
2022/02/01 03:58:11;;;;;;;13.33;5.70;;;2.40;99.90;;;;;;4954844;28;20062;-79
2022/02/01 04:00:38;;;;;;;11.17;5.27;;;2.40;99.90;;;;;;4959081;28;20070;-78
2022/02/01 04:03:04;;;;;;;12.07;7.87;;;2.40;99.90;;;;;;4953523;29;20066;-79
2022/02/01 04:05:31;;;;;;;13.43;5.53;;;2.40;99.90;;;;;;4954982;28;20058;-80
2022/02/01 04:07:57;;;;;;;13.67;5.30;;;2.40;99.90;;;;;;4966136;28;20059;-82
2022/02/01 04:10:24;;;;;;;10.67;5.27;;;2.40;99.90;;;;;;4976549;28;20047;-79
2022/02/01 04:12:51;;;;;;;12.70;5.60;;;2.40;99.90;;;;;;4979092;28;20058;-80
2022/02/01 04:15:22;;;;;;;11.57;6.77;;;2.40;99.90;;;;;;4971053;29;20075;-80
2022/02/01 04:17:50;;;;;;;11.93;6.40;;;2.40;99.90;;;;;;4971230;28;20062;-80
2022/02/01 04:20:16;;;;;;;12.47;6.37;;;2.40;99.90;;;;;;4961468;28;20058;-79
2022/02/01 04:22:42;;;;;;;9.03;5.30;;;2.40;99.90;;;;;;4973108;28;20059;-80
2022/02/01 04:25:09;;;;;;;12.33;5.87;;;2.40;99.90;;;;;;4976782;29;20055;-80
2022/02/01 04:27:37;;;;;;;20.47;8.17;;;2.30;99.90;;;;;;4978166;28;20059;-80
2022/02/01 04:30:07;;;;;;;14.17;5.87;;;2.30;99.90;;;;;;4967974;28;20122;-79
2022/02/01 04:32:35;;;;;;;17.83;6.53;;;2.30;99.90;;;;;;4954711;29;20378;-81
2022/02/01 04:35:04;;;;;;;17.60;7.43;;;2.40;99.90;;;;;;4954201;28;20118;-81
2022/02/01 04:37:31;;;;;;;12.90;6.57;;;2.40;99.90;;;;;;4953552;28;20528;-80
2022/02/01 04:42:45;;;;;;;13.57;5.47;;;2.30;99.90;;;;;;4965253;29;20055;-88
2022/02/01 04:45:14;;;;;;;11.77;6.67;;;2.40;99.90;;;;;;4959481;28;20083;-89
2022/02/01 04:47:44;;;;;;;17.43;7.43;;;2.50;99.90;;;;;;4972934;29;20060;-90
2022/02/01 04:50:17;;;;;;;17.23;7.37;;;2.40;99.90;;;;;;4969504;29;20110;-92
2022/02/01 04:52:46;;;;;;;8.87;6.23;;;2.50;99.90;;;;;;4969353;29;20134;-92
2022/02/01 04:55:14;;;;;;;15.40;6.37;;;2.50;99.90;;;;;;4967047;29;20059;-88
2022/02/01 04:57:53;;;;;;;14.43;8.20;;;2.50;99.90;;;;;;4977803;28;20051;-85
2022/02/01 05:00:21;;;;;;;11.87;7.47;;;2.40;99.90;;;;;;4986384;28;20107;-88
2022/02/01 05:02:48;;;;;;;15.00;6.67;;;2.50;99.90;;;;;;4970364;28;20147;-88
2022/02/01 05:05:19;;;;;;;20.20;8.83;;;2.50;99.90;;;;;;4957508;29;20090;-84
2022/02/01 05:07:45;;;;;;;17.13;8.13;;;2.40;99.90;;;;;;4956650;28;20055;-84
2022/02/01 05:10:11;;;;;;;14.60;8.03;;;2.40;99.90;;;;;;4957748;28;20078;-82
2022/02/01 05:12:38;;;;;;;17.07;8.37;;;2.50;99.90;;;;;;4957568;28;20070;-83
2022/02/01 05:15:12;;;;;;;12.30;7.03;;;2.50;99.90;;;;;;4957816;29;20071;-84
2022/02/01 05:17:41;;;;;;;18.07;8.33;;;2.50;99.90;;;;;;4958726;29;20055;-83
2022/02/01 05:20:21;;;;;;;20.70;8.97;;;2.50;99.90;;;;;;4956739;29;20075;-82
2022/02/01 05:22:48;;;;;;;13.53;7.77;;;2.50;99.90;;;;;;4954237;29;20055;-84
2022/02/01 05:25:15;;;;;;;11.93;6.83;;;2.50;99.90;;;;;;4938744;29;20052;-85
2022/02/01 05:27:41;;;;;;;16.40;6.60;;;2.50;99.90;;;;;;4954961;29;20546;-85
2022/02/01 05:30:09;;;;;;;13.27;6.90;;;2.50;99.90;;;;;;4950635;28;20524;-80
2022/02/01 05:32:36;;;;;;;8.60;5.73;;;2.50;99.90;;;;;;4956314;29;20442;-79
2022/02/01 05:35:02;;;;;;;7.63;5.60;;;2.50;99.90;;;;;;4955513;29;20117;-80
2022/02/01 05:37:28;;;;;;;12.33;6.43;;;2.50;99.90;;;;;;4962306;28;20059;-78
2022/02/01 05:39:57;;;;;;;8.43;5.73;;;2.50;99.90;;;;;;4956204;29;20126;-81
2022/02/01 05:42:34;;;;;;;10.93;6.57;;;2.50;99.90;;;;;;4955941;28;20071;-82
2022/02/01 05:45:01;;;;;;;12.17;5.97;;;2.50;99.90;;;;;;4951353;29;20077;-83
2022/02/01 05:47:28;;;;;;;8.97;6.00;;;2.50;99.90;;;;;;4953913;28;20059;-83
2022/02/01 05:50:09;;;;;;;11.10;7.03;;;2.50;99.90;;;;;;4936130;29;20519;-90
2022/02/01 05:52:35;;;;;;;10.53;7.10;;;2.40;99.90;;;;;;4945648;28;20478;-86
2022/02/01 05:55:05;;;;;;;13.47;7.53;;;2.40;99.90;;;;;;4943326;29;20094;-86
2022/02/01 05:57:32;;;;;;;7.40;6.20;;;2.40;99.90;;;;;;4945882;29;20043;-82
2022/02/01 06:00:00;;;;;;;10.27;7.57;;;2.40;99.90;;;;;;4960951;28;20059;-87
2022/02/01 06:02:26;;;;;;;13.60;5.67;;;2.30;99.90;;;;;;4973281;29;20059;-88
2022/02/01 06:04:53;;;;;;;7.03;4.73;;;2.20;99.90;;;;;;4958781;29;20051;-77
2022/02/01 06:07:20;;;;;;;11.43;4.63;;;2.10;99.90;;;;;;4956321;29;20047;-81
2022/02/01 06:09:46;;;;;;;10.83;5.67;;;2.00;99.90;;;;;;4954781;28;20133;-81
2022/02/01 06:12:14;;;;;;;8.30;4.53;;;2.00;99.90;;;;;;4954825;29;20059;-80
2022/02/01 06:14:40;;;;;;;7.23;4.83;;;1.90;99.90;;;;;;4939501;29;20063;-80
2022/02/01 06:17:06;;;;;;;6.83;4.27;;;1.90;99.90;;;;;;4955293;29;20055;-81
2022/02/01 06:19:34;;;;;;;11.17;5.57;;;2.00;99.90;;;;;;4937023;29;20063;-78
2022/02/01 06:22:01;;;;;;;11.90;7.33;;;1.90;99.90;;;;;;4952591;28;20055;-81
2022/02/01 06:24:27;;;;;;;10.43;6.07;;;1.90;99.90;;;;;;4963406;28;20460;-85
2022/02/01 06:26:53;;;;;;;10.10;5.07;;;1.90;99.90;;;;;;4954828;29;20058;-83
2022/02/01 06:29:20;;;;;;;12.13;6.63;;;1.90;99.90;;;;;;4955475;29;20063;-83
2022/02/01 06:31:46;;;;;;;13.23;6.27;;;1.90;99.90;;;;;;4958825;29;20059;-82
2022/02/01 06:34:12;;;;;;;11.23;6.00;;;1.90;99.90;;;;;;4960154;29;20055;-82
2022/02/01 06:36:39;;;;;;;19.87;7.20;;;1.90;99.90;;;;;;4955457;28;20066;-86
2022/02/01 06:39:11;;;;;;;10.13;5.83;;;2.00;99.90;;;;;;4943665;29;20109;-86
2022/02/01 06:41:38;;;;;;;12.00;7.50;;;2.00;99.90;;;;;;4956262;29;20073;-87
2022/02/01 06:44:08;;;;;;;11.10;7.40;;;2.00;99.90;;;;;;4956125;29;20489;-85
2022/02/01 06:46:35;;;;;;;11.07;6.30;;;2.00;99.90;;;;;;4954764;28;20055;-79
2022/02/01 06:49:02;;;;;;;12.10;7.00;;;2.00;99.90;;;;;;4953534;29;20055;-80
2022/02/01 06:51:29;;;;;;;10.67;7.07;;;2.10;99.90;;;;;;4952992;29;20102;-80
2022/02/01 06:53:55;;;;;;;10.47;6.93;;;2.00;99.90;;;;;;4955443;29;20086;-81
2022/02/01 06:56:28;;;;;;;19.70;9.13;;;2.00;99.90;;;;;;4955160;29;20125;-82
2022/02/01 06:58:56;;;;;;;11.83;7.77;;;2.10;99.90;;;;;;4953779;29;20560;-82
2022/02/01 07:01:23;;;;;;;11.67;7.07;;;2.10;99.90;;;;;;4952420;28;20134;-83
2022/02/01 07:03:51;;;;;;;16.07;7.77;;;2.10;99.90;;;;;;4952443;28;20414;-81
2022/02/01 07:06:18;;;;;;;14.93;6.40;;;2.10;99.90;;;;;;4953675;28;20394;-83
2022/02/01 07:08:47;;;;;;;16.40;7.10;;;2.10;99.90;;;;;;4951263;29;20552;-81
2022/02/01 07:11:15;;;;;;;9.73;5.33;;;2.10;99.90;;;;;;4952530;28;20055;-78
2022/02/01 07:13:42;;;;;;;6.83;4.13;;;2.10;99.90;;;;;;4953371;28;20055;-78
2022/02/01 07:16:08;;;;;;;12.30;5.97;;;2.10;99.90;;;;;;4951840;29;20105;-78
2022/02/01 07:18:34;;;;;;;11.27;5.37;;;2.20;99.90;;;;;;4952901;29;20062;-78
2022/02/01 07:21:02;;;;;;;34.27;14.40;;;2.20;99.90;;;;;;4953695;29;20059;-79
2022/02/01 07:23:28;;;;;;;26.00;13.47;;;2.20;99.90;;;;;;4954732;29;20101;-81
2022/02/01 07:25:56;;;;;;;25.83;12.57;;;2.20;99.90;;;;;;4949378;29;20506;-82
2022/02/01 07:28:25;;;;;;;9.30;5.30;;;2.30;99.90;;;;;;4952900;29;20070;-81
2022/02/01 07:30:56;;;;;;;9.97;5.73;;;2.30;99.90;;;;;;4953939;29;20497;-81
2022/02/01 07:33:23;;;;;;;7.97;4.75;;;2.30;99.90;;;;;;4957827;28;20146;-78
2022/02/01 07:35:50;;;;;;;7.43;4.97;;;2.40;99.90;;;;;;4963342;28;20054;-81
2022/02/01 07:38:27;;;;;;;12.00;5.43;;;2.40;99.90;;;;;;4964049;28;20055;-92
2022/02/01 07:40:55;;;;;;;16.63;6.60;;;2.40;99.90;;;;;;4954202;29;20070;-79
2022/02/01 07:43:24;;;;;;;8.33;5.27;;;2.50;99.90;;;;;;4956743;29;20110;-79
2022/02/01 07:45:53;;;;;;;19.73;6.33;;;2.50;99.90;;;;;;4955974;29;20055;-79
2022/02/01 07:48:19;;;;;;;8.70;5.37;;;2.50;99.90;;;;;;4955909;29;20074;-78
2022/02/01 07:50:45;;;;;;;12.47;7.87;;;2.50;99.90;;;;;;4955877;29;20083;-78
2022/02/01 07:53:14;;;;;;;14.97;7.17;;;2.50;99.90;;;;;;4958222;29;20466;-81
2022/02/01 07:55:44;;;;;;;10.30;5.63;;;2.60;99.90;;;;;;4958364;29;20066;-78
2022/02/01 07:58:11;;;;;;;18.13;6.60;;;2.60;99.90;;;;;;4957987;28;20043;-82
2022/02/01 08:00:43;;;;;;;12.97;5.97;;;2.60;99.90;;;;;;4958809;29;20615;-84
2022/02/01 08:03:11;;;;;;;11.93;5.83;;;2.60;99.90;;;;;;4942737;29;20047;-84
2022/02/01 08:05:37;;;;;;;7.57;5.77;;;2.50;99.90;;;;;;4959024;29;20067;-75
2022/02/01 08:08:06;;;;;;;10.40;5.40;;;2.60;99.90;;;;;;4956416;29;20054;-81
2022/02/01 08:10:43;;;;;;;11.90;5.27;;;2.60;99.90;;;;;;4955234;29;20055;-83
2022/02/01 08:13:56;;;;;;;11.83;4.77;;;2.60;99.90;;;;;;4956187;28;20051;-82
2022/02/01 08:16:35;;;;;;;6.97;5.23;;;2.60;99.90;;;;;;4942018;29;20055;-82
2022/02/01 08:19:09;;;;;;;7.00;3.90;;;2.70;99.90;;;;;;4942206;28;20051;-82
2022/02/01 08:21:43;;;;;;;12.37;5.60;;;2.70;99.90;;;;;;4964177;28;20051;-91
2022/02/01 08:24:09;;;;;;;9.30;4.63;;;2.80;99.90;;;;;;4963958;28;21744;-84
2022/02/01 08:26:36;;;;;;;10.67;4.47;;;2.70;99.90;;;;;;4965472;28;20062;-84
2022/02/01 08:29:04;;;;;;;8.60;4.73;;;2.80;99.90;;;;;;4968201;28;20485;-83
2022/02/01 08:34:59;;;;;;;4.50;3.60;;;2.90;99.90;;;;;;4973615;28;20059;-79
2022/02/01 08:37:26;;;;;;;11.83;4.03;;;2.90;99.90;;;;;;4973409;29;20082;-80
2022/02/01 08:40:03;;;;;;;10.77;5.53;;;2.90;99.90;;;;;;4972994;29;20043;-80
2022/02/01 08:42:30;;;;;;;6.30;3.20;;;3.00;99.90;;;;;;4974279;29;20159;-80
2022/02/01 08:44:58;;;;;;;11.37;7.50;;;2.90;99.90;;;;;;4973832;28;20051;-80
2022/02/01 08:47:25;;;;;;;5.80;3.50;;;3.00;99.90;;;;;;4971990;28;20052;-84
2022/02/01 08:49:52;;;;;;;13.70;5.33;;;3.00;99.90;;;;;;4971592;28;20086;-80
2022/02/01 08:55:34;;;;;;;14.13;3.87;;;3.10;99.90;;;;;;4913870;29;20056;-80
2022/02/01 08:58:11;;;;;;;14.05;4.05;;;3.10;99.90;;;;;;4910357;29;20509;-80
2022/02/01 09:01:09;;;;;;;12.37;4.30;;;3.00;99.90;;;;;;4908544;29;20060;-81
2022/02/01 09:04:09;;;;;;;7.80;3.33;;;3.10;99.90;;;;;;4888618;29;20045;-83
2022/02/01 09:06:40;;;;;;;6.93;3.83;;;3.10;99.90;;;;;;4903655;29;20724;-79
2022/02/01 09:09:07;;;;;;;10.40;2.97;;;3.10;99.90;;;;;;4904702;29;20596;-78
2022/02/01 09:11:33;;;;;;;11.30;4.40;;;3.10;99.90;;;;;;4902092;29;20064;-80
2022/02/01 09:13:59;;;;;;;11.10;3.73;;;3.20;99.90;;;;;;4909446;29;20108;-82
2022/02/01 09:16:27;;;;;;;7.40;3.07;;;3.20;99.90;;;;;;4879031;29;20064;-82
2022/02/01 09:18:54;;;;;;;6.13;2.60;;;3.30;99.90;;;;;;4889824;29;20070;-80
2022/02/01 09:24:12;;;;;;;3.83;1.83;;;3.40;99.90;;;;;;4918833;29;20043;-83
2022/02/01 09:29:26;;;;;;;6.13;3.43;;;3.50;99.90;;;;;;4914894;29;20044;-79
2022/02/01 09:31:57;;;;;;;4.97;2.10;;;3.50;99.90;;;;;;4914388;29;20112;-82
2022/02/01 09:34:25;;;;;;;17.20;3.88;;;3.60;99.90;;;;;;4914017;29;20059;-78
2022/02/01 09:36:55;;;;;;;13.10;3.17;;;3.70;99.90;;;;;;4911430;29;20092;-83
2022/02/01 09:39:23;;;;;;;14.13;3.93;;;3.70;99.90;;;;;;4897258;29;20503;-82
2022/02/01 09:41:50;;;;;;;5.17;2.47;;;3.70;99.90;;;;;;4918485;29;20340;-83
2022/02/01 09:44:20;;;;;;;5.53;1.93;;;3.80;99.90;;;;;;4918639;29;20475;-84
2022/02/01 09:46:52;;;;;;;6.67;2.57;;;3.70;99.90;;;;;;4918207;29;20076;-84
2022/02/01 09:49:22;;;;;;;5.68;3.67;;;3.80;99.90;;;;;;4917397;29;20081;-86
2022/02/01 09:51:54;;;;;;;11.17;3.80;;;3.80;99.90;;;;;;4895852;29;20048;-83
2022/02/01 09:54:23;;;;;;;3.73;1.73;;;3.90;99.90;;;;;;4889887;29;20476;-77
2022/02/01 09:56:50;;;;;;;9.40;1.90;;;4.00;99.90;;;;;;4897713;29;20051;-78
2022/02/01 09:59:19;;;;;;;5.80;2.03;;;3.90;99.90;;;;;;4915269;29;20048;-79
2022/02/01 10:01:54;;;;;;;6.37;2.13;;;3.90;99.90;;;;;;4915575;29;20059;-79
2022/02/01 10:04:25;;;;;;;4.23;1.90;;;3.80;99.90;;;;;;4912777;29;20463;-78
2022/02/01 10:06:53;;;;;;;12.45;1.80;;;3.80;99.90;;;;;;4909578;29;20056;-77
2022/02/01 10:09:33;;;;;;;3.47;2.07;;;3.90;99.90;;;;;;4915735;29;20044;-80
2022/02/01 10:11:59;;;;;;;5.87;2.03;;;3.80;99.90;;;;;;4897943;29;20060;-80
2022/02/01 10:14:36;;;;;;;7.03;1.70;;;3.80;99.90;;;;;;4916487;29;20112;-84
2022/02/01 10:17:07;;;;;;;3.00;1.77;;;3.80;99.90;;;;;;4913113;29;20111;-79
2022/02/01 10:19:37;;;;;;;6.13;1.77;;;3.80;99.90;;;;;;4913539;29;20044;-82
2022/02/01 10:22:04;;;;;;;5.60;2.37;;;3.80;99.90;;;;;;4915027;29;20056;-81
2022/02/01 10:24:35;;;;;;;8.13;2.43;;;3.70;99.90;;;;;;4916119;29;20048;-81
2022/02/01 10:27:09;;;;;;;1.43;1.33;;;3.70;99.90;;;;;;4890815;29;20091;-79
2022/02/01 10:29:38;;;;;;;7.20;2.63;;;3.70;99.90;;;;;;4910549;29;20051;-80
2022/02/01 10:32:17;;;;;;;4.67;2.27;;;3.80;99.90;;;;;;4916205;29;20056;-83
2022/02/01 10:34:46;;;;;;;9.37;6.80;;;3.90;99.90;;;;;;4920041;29;20079;-82
2022/02/01 10:37:22;;;;;;;7.43;6.10;;;4.00;99.90;;;;;;4924225;29;20079;-87
2022/02/01 10:40:05;;;;;;;23.70;16.57;;;4.10;99.90;;;;;;4924945;29;20085;-83
2022/02/01 10:42:32;;;;;;;8.83;3.50;;;4.00;99.90;;;;;;4924580;29;20043;-81
2022/02/01 10:45:01;;;;;;;40.10;21.80;;;4.00;99.90;;;;;;4921049;29;20076;-86
2022/02/01 10:47:33;;;;;;;8.23;3.20;;;4.10;99.90;;;;;;4885583;29;20067;-84
2022/02/01 10:50:09;;;;;;;11.70;2.53;;;4.00;99.90;;;;;;4914996;29;20079;-79
2022/02/01 10:52:39;;;;;;;6.77;2.77;;;4.00;99.90;;;;;;4919734;29;20554;-88
2022/02/01 10:55:08;;;;;;;3.80;2.13;;;4.00;99.90;;;;;;4918429;29;20570;-86
2022/02/01 10:57:34;;;;;;;8.77;2.77;;;4.00;99.90;;;;;;4911545;29;20082;-82
2022/02/01 11:00:02;;;;;;;9.80;2.20;;;4.10;99.90;;;;;;4914043;29;20064;-81
2022/02/01 11:02:29;;;;;;;3.73;1.60;;;4.10;99.90;;;;;;4917470;29;20060;-84
2022/02/01 11:04:57;;;;;;;6.67;2.20;;;4.00;99.90;;;;;;4916445;29;20107;-84
2022/02/01 11:07:23;;;;;;;6.23;2.50;;;4.00;99.90;;;;;;4916811;29;20055;-80
2022/02/01 11:09:51;;;;;;;6.87;2.10;;;4.00;99.90;;;;;;4910568;29;20072;-80
2022/02/01 11:12:22;;;;;;;14.50;2.33;;;4.00;99.90;;;;;;4913393;29;20056;-83
2022/02/01 11:14:49;;;;;;;;;;;4.00;99.90;;;;;;4915695;29;20107;-81
2022/02/01 11:17:17;;;;;;;9.27;2.10;;;4.00;99.90;;;;;;4909031;29;19923;-81
2022/02/01 11:19:50;;;;;;;4.70;1.57;;;4.10;99.90;;;;;;4913567;29;20570;-84
2022/02/01 11:22:25;;;;;;;5.60;2.17;;;4.10;99.90;;;;;;4913845;29;20365;-79
2022/02/01 11:24:57;;;;;;;6.20;1.97;;;4.10;99.90;;;;;;4922592;29;20127;-81
2022/02/01 11:27:37;;;;;;;5.30;1.50;;;4.20;99.90;;;;;;4923446;29;20098;-82
2022/02/01 11:30:11;;;;;;;2.00;1.50;;;4.20;99.90;;;;;;4921991;29;20060;-80
2022/02/01 11:32:42;;;;;;;7.77;2.43;;;4.20;99.90;;;;;;4908789;29;20055;-85
2022/02/01 11:35:10;;;;;;;7.47;2.83;;;4.10;99.90;;;;;;4923511;29;20056;-80
2022/02/01 11:37:48;;;;;;;4.67;3.20;;;4.10;99.90;;;;;;4917628;29;20143;-78
2022/02/01 11:40:16;;;;;;;38.73;19.30;;;4.10;99.90;;;;;;4918993;29;20086;-82
2022/02/01 11:42:54;;;;;;;21.93;9.70;;;4.10;99.90;;;;;;4911209;29;20064;-81
2022/02/01 11:45:30;;;;;;;3.73;1.43;;;4.10;99.90;;;;;;4918946;29;20059;-80
2022/02/01 11:48:00;;;;;;;2.93;1.83;;;4.10;99.90;;;;;;4916092;29;20554;-80
2022/02/01 11:50:27;;;;;;;4.83;1.53;;;4.00;99.90;;;;;;4913491;29;20574;-80
2022/02/01 11:52:57;;;;;;;3.93;1.53;;;3.90;99.90;;;;;;4914388;29;20064;-80
2022/02/01 11:55:33;;;;;;;9.67;1.93;;;4.00;99.90;;;;;;4914799;29;20126;-81
2022/02/01 11:58:12;;;;;;;2.70;1.53;;;4.00;99.90;;;;;;4914188;29;20059;-84
2022/02/01 12:00:41;;;;;;;6.17;2.20;;;4.10;99.90;;;;;;4920211;29;20052;-88
2022/02/01 12:03:20;;;;;;;6.33;1.50;;;4.10;99.90;;;;;;4918606;29;20501;-88
2022/02/01 12:05:59;;;;;;;2.73;1.97;;;4.10;99.90;;;;;;4908791;29;20064;-81
2022/02/01 12:08:31;;;;;;;2.23;1.40;;;4.00;99.90;;;;;;4912415;29;20965;-80
2022/02/01 12:11:15;;;;;;;9.70;2.53;;;4.00;99.90;;;;;;4914655;29;20557;-95
2022/02/01 12:13:42;;;;;;;5.30;1.77;;;4.10;99.90;;;;;;4914917;29;20123;-81
2022/02/01 12:16:10;;;;;;;12.03;2.20;;;4.10;99.90;;;;;;4916457;29;20387;-86
2022/02/01 12:18:49;;;;;;;12.67;2.47;;;4.00;99.90;;;;;;4910702;29;20979;-79
2022/02/01 12:21:29;;;;;;;5.80;2.40;;;4.20;99.90;;;;;;4919856;29;20498;-80
2022/02/01 12:23:57;;;;;;;6.87;2.27;;;4.20;99.90;;;;;;4919867;29;20484;-83
2022/02/01 12:26:26;;;;;;;6.40;3.53;;;4.20;99.90;;;;;;4919287;29;20045;-86
2022/02/01 12:32:08;;;;;;;3.83;1.70;;;4.30;99.90;;;;;;4920282;29;20056;-84
2022/02/01 12:34:35;;;;;;;;;;;4.40;99.90;;;;;;4924850;29;20119;-84
2022/02/01 12:37:01;;;;;;;3.27;1.73;;;4.30;99.90;;;;;;4914782;29;19923;-82
2022/02/01 12:39:32;;;;;;;7.77;2.53;;;4.30;99.90;;;;;;4929298;29;20395;-81
2022/02/01 12:42:02;;;;;;;10.90;3.10;;;4.20;99.90;;;;;;4914991;29;20056;-84
2022/02/01 12:47:27;;;;;;;3.10;2.20;;;4.20;99.90;;;;;;4925269;29;20123;-84
2022/02/01 12:49:55;;;;;;;8.57;1.43;;;4.20;99.90;;;;;;4938006;29;20060;-86
2022/02/01 12:52:26;;;;;;;7.87;2.10;;;4.10;99.90;;;;;;4943905;29;20079;-82
2022/02/01 12:54:59;;;;;;;7.60;2.58;;;4.10;99.90;;;;;;4923185;29;20048;-83
2022/02/01 12:57:26;;;;;;;5.07;1.53;;;4.00;99.90;;;;;;4923800;29;20107;-85
2022/02/01 12:59:56;;;;;;;4.80;2.10;;;4.00;99.90;;;;;;4926442;29;20063;-83
2022/02/01 13:02:29;;;;;;;5.17;1.50;;;3.90;99.90;;;;;;4924282;29;20048;-83
2022/02/01 13:04:58;;;;;;;2.93;1.67;;;4.00;99.90;;;;;;4923971;29;20064;-82
2022/02/01 13:07:32;;;;;;;5.30;0.87;;;4.00;99.90;;;;;;4921813;29;20059;-81
2022/02/01 13:13:01;;;;;;;1.47;0.97;;;4.00;99.90;;;;;;4917763;29;20494;-84
2022/02/01 13:15:35;;;;;;;7.17;3.73;;;4.00;99.90;;;;;;4932399;29;20087;-86
2022/02/01 13:18:17;;;;;;;13.47;7.80;;;3.90;99.90;;;;;;4922657;29;20052;-82
2022/02/01 13:20:55;;;;;;;;;;;4.00;99.90;;;;;;4921040;29;20067;-83
2022/02/01 13:23:22;;;;;;;6.13;1.63;;;3.90;99.90;;;;;;4926408;29;19946;-83
2022/02/01 13:25:50;;;;;;;2.60;1.20;;;3.80;99.90;;;;;;4925904;29;20052;-83
2022/02/01 13:28:19;;;;;;;8.50;2.13;;;3.80;99.90;;;;;;4922569;29;20056;-82
2022/02/01 13:30:46;;;;;;;6.13;1.43;;;3.80;99.90;;;;;;4921794;29;20087;-85
2022/02/01 13:33:16;;;;;;;0.87;0.80;;;3.70;99.90;;;;;;4926762;29;20060;-84
2022/02/01 13:41:12;;;;;;;3.27;2.97;;;3.50;99.90;;;;;;4921505;29;20048;-83
2022/02/01 13:43:55;;;;;;;3.20;1.23;;;3.40;99.90;;;;;;4905598;29;20088;-83
2022/02/01 13:46:28;;;;;;;4.10;1.30;;;3.40;99.90;;;;;;4927969;29;20060;-82
2022/02/01 13:49:02;;;;;;;;;;;3.30;99.90;;;;;;4907124;29;20207;-80
2022/02/01 13:51:29;;;;;;;0.47;0.47;;;3.20;99.90;;;;;;4925603;29;19907;-82
2022/02/01 13:53:59;;;;;;;1.60;1.50;;;3.20;99.90;;;;;;4911486;29;20060;-83
2022/02/01 13:56:45;;;;;;;6.20;1.73;;;3.30;99.90;;;;;;4911617;29;20056;-79
2022/02/01 13:59:17;;;;;;;3.03;2.17;;;3.30;99.90;;;;;;4902847;29;20040;-81
2022/02/01 14:01:45;;;;;;;;;;;3.30;99.90;;;;;;4910513;29;20060;-81
2022/02/01 14:04:19;;;;;;;1.77;1.10;;;3.40;99.90;;;;;;4913105;29;19990;-81
2022/02/01 14:06:51;;;;;;;2.43;2.07;;;3.40;99.90;;;;;;4909601;29;20084;-83
2022/02/01 14:09:34;;;;;;;;;;;3.30;99.90;;;;;;4911265;29;20041;-79
2022/02/01 14:12:26;;;;;;;3.07;2.10;;;3.30;99.90;;;;;;4906649;29;19978;-82
2022/02/01 14:24:04;;;;;;;3.20;2.87;;;2.90;99.90;;;;;;4915412;29;20144;-82
2022/02/01 14:26:42;;;;;;;3.23;2.00;;;2.80;99.90;;;;;;4918076;29;20040;-81
2022/02/01 14:32:03;;;;;;;4.57;2.60;;;2.70;99.90;;;;;;4916366;29;20100;-83
2022/02/01 14:32:14;;;;;;;2.57;2.37;;;2.60;99.90;;;;;;4919046;29;20056;-82
2022/02/01 14:34:43;;;;;;;6.63;2.53;;;2.60;99.90;;;;;;4909102;29;20131;-82
2022/02/01 14:37:16;;;;;;;4.53;2.97;;;2.60;99.90;;;;;;4904410;29;20048;-82
2022/02/01 14:45:20;;;;;;;5.47;3.90;;;2.50;99.90;;;;;;4901316;29;20076;-83
2022/02/01 14:47:49;;;;;;;3.50;2.88;;;2.60;99.90;;;;;;4898336;29;20075;-83
2022/02/01 14:50:18;;;;;;;4.23;2.57;;;2.60;99.90;;;;;;4897216;29;20076;-82
2022/02/01 14:52:47;;;;;;;3.13;2.63;;;2.50;99.90;;;;;;4898757;29;20061;-83